createdAt,value
2022-08-05T00:00:24.152Z,52.20
2022-08-05T00:02:54.298Z,52.10
2022-08-05T00:06:03.178Z,52.20
2022-08-05T00:08:30.893Z,52.20
2022-08-05T00:11:02.035Z,52.20
2022-08-05T00:13:38.532Z,52.20
2022-08-05T00:16:09.214Z,52.20
2022-08-05T00:18:39.754Z,52.20
2022-08-05T00:21:08.558Z,52.10
2022-08-05T00:23:45.781Z,52.20
2022-08-05T00:26:17.001Z,52.20
2022-08-05T00:28:45.920Z,52.20
2022-08-05T00:31:14.741Z,52.20
2022-08-05T00:34:56.057Z,52.10
2022-08-05T00:37:11.344Z,52.10
2022-08-05T00:39:19.319Z,52.10
2022-08-05T00:41:55.152Z,52.20
2022-08-05T00:44:30.817Z,52.20
2022-08-05T00:47:02.089Z,52.20
2022-08-05T00:49:51.033Z,52.20
2022-08-05T00:52:28.766Z,52.10
2022-08-05T00:54:57.214Z,52.10
2022-08-05T00:57:38.217Z,52.10
2022-08-05T01:00:17.069Z,52.20
2022-08-05T01:02:48.001Z,52.20
2022-08-05T01:05:18.376Z,52.20
2022-08-05T01:08:40.291Z,52.10
2022-08-05T01:10:52.364Z,52.20
2022-08-05T01:13:57.366Z,52.20
2022-08-05T01:16:26.713Z,52.10
2022-08-05T01:19:02.109Z,52.10
2022-08-05T01:22:07.845Z,52.20
2022-08-05T01:25:18.288Z,52.10
2022-08-05T01:28:14.553Z,52.10
2022-08-05T01:30:53.621Z,52.10
2022-08-05T01:33:29.461Z,52.10
2022-08-05T01:36:12.711Z,52.00
2022-08-05T01:38:42.168Z,52.10
2022-08-05T01:41:12.161Z,52.10
2022-08-05T01:43:44.805Z,52.10
2022-08-05T01:46:42.175Z,52.10
2022-08-05T01:49:22.609Z,52.10
2022-08-05T01:51:56.342Z,52.10
2022-08-05T01:54:30.108Z,52.10
2022-08-05T01:58:12.870Z,52.10
2022-08-05T01:59:50.754Z,52.10
2022-08-05T02:02:26.131Z,52.10
2022-08-05T02:05:00.188Z,52.10
2022-08-05T02:07:30.215Z,52.00
2022-08-05T02:09:59.251Z,52.10
2022-08-05T02:12:37.330Z,52.10
2022-08-05T02:15:13.640Z,52.10
2022-08-05T02:18:32.174Z,52.10
2022-08-05T02:20:47.000Z,52.70
2022-08-05T02:23:17.407Z,52.10
2022-08-05T02:25:50.212Z,52.10
2022-08-05T02:28:29.316Z,52.00
2022-08-05T02:31:05.924Z,52.10
2022-08-05T02:33:40.742Z,52.00
2022-08-05T02:36:15.594Z,52.00
2022-08-05T02:38:53.117Z,52.00
2022-08-05T02:41:23.699Z,52.00
2022-08-05T02:44:06.266Z,52.00
2022-08-05T02:46:58.410Z,52.00
2022-08-05T02:49:36.569Z,52.10
2022-08-05T02:52:09.064Z,52.00
2022-08-05T02:54:41.147Z,52.10
2022-08-05T02:58:10.176Z,52.00
2022-08-05T03:00:01.400Z,52.00
2022-08-05T03:02:35.903Z,52.00
2022-08-05T03:05:05.290Z,52.00
2022-08-05T03:08:01.930Z,52.00
2022-08-05T03:10:25.151Z,52.10
2022-08-05T03:12:54.452Z,52.10
2022-08-05T03:15:24.173Z,52.10
2022-08-05T03:17:55.595Z,52.10
2022-08-05T03:20:25.034Z,52.10
2022-08-05T03:22:57.242Z,52.00
2022-08-05T03:26:03.922Z,52.10
2022-08-05T03:28:18.413Z,52.10
2022-08-05T03:30:48.749Z,52.10
2022-08-05T03:33:19.198Z,52.10
2022-08-05T03:35:49.924Z,52.10
2022-08-05T03:38:32.819Z,52.10
2022-08-05T03:41:08.190Z,52.10
2022-08-05T03:44:09.121Z,52.10
2022-08-05T03:46:29.543Z,52.10
2022-08-05T03:49:01.860Z,52.00
2022-08-05T03:52:39.017Z,52.00
2022-08-05T03:55:54.021Z,52.00
2022-08-05T03:57:21.879Z,52.00
2022-08-05T04:00:11.680Z,51.90
2022-08-05T04:02:57.890Z,51.90
2022-08-05T04:05:33.553Z,52.00
2022-08-05T04:08:05.563Z,52.00
2022-08-05T04:10:44.873Z,51.90
2022-08-05T04:13:13.287Z,52.00
2022-08-05T04:16:03.393Z,52.00
2022-08-05T04:18:30.112Z,52.00
2022-08-05T04:20:59.836Z,52.00
2022-08-05T04:24:00.199Z,52.00
2022-08-05T04:26:18.049Z,52.00
2022-08-05T04:28:51.210Z,52.10
2022-08-05T04:31:20.431Z,52.10
2022-08-05T04:34:18.029Z,52.10
2022-08-05T04:36:49.523Z,52.10
2022-08-05T04:39:18.582Z,52.10
2022-08-05T04:41:48.207Z,52.00
2022-08-05T04:44:29.020Z,52.10
2022-08-05T04:46:59.060Z,52.10
2022-08-05T04:49:38.849Z,52.10
2022-08-05T04:52:16.993Z,52.10
2022-08-05T04:54:46.884Z,52.10
2022-08-05T04:57:17.505Z,52.20
2022-08-05T04:59:47.933Z,52.20
2022-08-05T05:02:36.541Z,52.20
2022-08-05T05:05:26.587Z,52.20
2022-08-05T05:07:56.461Z,52.30
2022-08-05T05:10:29.837Z,52.30
2022-08-05T05:12:58.237Z,52.30
2022-08-05T05:15:59.437Z,52.30
2022-08-05T05:18:31.333Z,52.40
2022-08-05T05:21:02.061Z,52.40
2022-08-05T05:24:01.758Z,52.40
2022-08-05T05:26:28.325Z,52.40
2022-08-05T05:29:02.338Z,52.30
2022-08-05T05:34:02.252Z,52.40
2022-08-05T05:36:31.784Z,52.50
2022-08-05T05:39:03.736Z,52.50
2022-08-05T05:41:40.712Z,52.50
2022-08-05T05:44:37.036Z,52.50
2022-08-05T05:47:04.396Z,52.50
2022-08-05T05:49:41.546Z,52.50
2022-08-05T05:52:12.991Z,52.50
2022-08-05T05:54:56.003Z,52.60
2022-08-05T05:57:24.316Z,52.60
2022-08-05T05:59:53.840Z,52.60
2022-08-05T06:02:36.657Z,52.60
2022-08-05T06:05:10.261Z,52.60
2022-08-05T06:07:57.772Z,52.60
2022-08-05T06:10:36.512Z,52.60
2022-08-05T06:13:06.127Z,52.60
2022-08-05T06:16:30.436Z,52.70
2022-08-05T06:18:31.243Z,52.70
2022-08-05T06:20:59.844Z,52.60
2022-08-05T06:23:28.086Z,52.70
2022-08-05T06:26:23.868Z,52.80
2022-08-05T06:28:53.356Z,52.80
2022-08-05T06:31:22.139Z,52.80
2022-08-05T06:34:06.346Z,52.80
2022-08-05T06:36:53.533Z,52.80
2022-08-05T06:39:27.347Z,52.90
2022-08-05T06:41:58.826Z,52.90
2022-08-05T06:44:27.357Z,52.90
2022-08-05T06:46:55.694Z,53.00
2022-08-05T06:50:02.017Z,52.90
2022-08-05T06:52:37.723Z,53.00
2022-08-05T06:55:00.637Z,53.00
2022-08-05T06:57:57.427Z,53.00
2022-08-05T07:00:24.535Z,53.00
2022-08-05T07:02:53.784Z,53.00
2022-08-05T07:05:37.469Z,53.00
2022-08-05T07:08:10.700Z,53.00
2022-08-05T07:10:53.093Z,53.10
2022-08-05T07:13:58.161Z,53.10
2022-08-05T07:17:59.045Z,53.10
2022-08-05T07:22:29.189Z,53.10
2022-08-05T07:24:59.275Z,53.10
2022-08-05T07:27:57.490Z,53.20
2022-08-05T07:30:24.008Z,53.10
2022-08-05T07:32:56.490Z,53.20
2022-08-05T07:35:56.073Z,53.20
2022-08-05T07:38:32.451Z,53.20
2022-08-05T07:41:16.683Z,53.10
2022-08-05T07:43:51.490Z,53.10
2022-08-05T07:46:25.526Z,53.20
2022-08-05T07:49:02.269Z,53.10
2022-08-05T07:51:37.546Z,53.30
2022-08-05T07:54:10.602Z,53.20
2022-08-05T07:57:02.021Z,53.20
2022-08-05T07:59:38.808Z,53.20
2022-08-05T08:02:16.203Z,53.20
2022-08-05T08:04:47.313Z,53.90
2022-08-05T08:07:15.969Z,53.20
2022-08-05T08:09:45.957Z,53.20
2022-08-05T08:12:35.013Z,53.20
2022-08-05T08:15:03.718Z,53.20
2022-08-05T08:17:34.482Z,53.20
2022-08-05T08:20:21.205Z,53.30
2022-08-05T08:22:55.748Z,53.30
2022-08-05T08:25:27.200Z,53.30
2022-08-05T08:28:18.319Z,53.30
2022-08-05T08:31:00.953Z,53.30
2022-08-05T08:33:30.795Z,53.30
2022-08-05T08:36:29.679Z,53.30
2022-08-05T08:38:56.803Z,53.40
2022-08-05T08:41:52.639Z,53.50
2022-08-05T08:45:24.143Z,53.50
2022-08-05T08:47:21.683Z,53.40
2022-08-05T08:50:05.801Z,53.40
2022-08-05T08:52:47.247Z,53.50
2022-08-05T08:56:01.902Z,53.50
2022-08-05T08:58:08.705Z,53.50
2022-08-05T09:00:37.448Z,53.60
2022-08-05T09:03:07.830Z,53.50
2022-08-05T09:05:38.572Z,53.60
2022-08-05T09:08:27.475Z,53.70
2022-08-05T09:10:59.015Z,53.70
2022-08-05T09:13:31.922Z,53.70
2022-08-05T09:16:17.213Z,53.80
2022-08-05T09:18:45.562Z,53.90
2022-08-05T09:21:20.867Z,53.90
2022-08-05T09:24:05.374Z,53.90
2022-08-05T09:26:35.007Z,54.00
2022-08-05T09:29:08.834Z,54.00
2022-08-05T09:32:42.018Z,54.00
2022-08-05T09:34:26.313Z,54.10
2022-08-05T09:36:59.364Z,54.10
2022-08-05T09:39:41.961Z,54.10
2022-08-05T09:42:23.597Z,54.10
2022-08-05T09:45:03.373Z,54.70
2022-08-05T09:47:55.290Z,54.00
2022-08-05T09:50:38.447Z,54.00
2022-08-05T09:53:22.869Z,54.10
2022-08-05T09:56:04.477Z,54.10
2022-08-05T09:58:33.450Z,54.10
2022-08-05T10:01:15.209Z,54.10
2022-08-05T10:04:00.105Z,54.20
2022-08-05T10:06:28.706Z,54.10
2022-08-05T10:09:10.556Z,54.10
2022-08-05T10:11:56.229Z,54.20
2022-08-05T10:14:26.819Z,54.10
2022-08-05T10:16:56.236Z,54.30
2022-08-05T10:19:31.835Z,54.20
2022-08-05T10:22:25.323Z,54.20
2022-08-05T10:25:00.186Z,54.20
2022-08-05T10:28:09.283Z,54.20
2022-08-05T10:31:20.651Z,54.20
2022-08-05T10:33:14.568Z,54.30
2022-08-05T10:35:44.316Z,54.30
2022-08-05T10:38:14.605Z,54.30
2022-08-05T10:40:58.123Z,54.30
2022-08-05T10:43:35.946Z,54.30
2022-08-05T10:46:07.118Z,54.30
2022-08-05T10:48:52.747Z,54.30
2022-08-05T10:51:28.372Z,54.30
2022-08-05T10:54:01.754Z,54.30
2022-08-05T10:56:49.446Z,55.00
2022-08-05T11:00:04.363Z,54.30
2022-08-05T11:02:34.632Z,54.30
2022-08-05T11:05:06.339Z,54.30
2022-08-05T11:08:02.693Z,54.20
2022-08-05T11:10:27.481Z,54.20
2022-08-05T11:12:58.025Z,54.20
2022-08-05T11:15:59.559Z,54.20
2022-08-05T11:18:27.556Z,54.20
2022-08-05T11:20:59.081Z,54.20
2022-08-05T11:24:05.632Z,54.20
2022-08-05T11:26:29.154Z,54.20
2022-08-05T11:29:11.631Z,54.10
2022-08-05T11:31:56.316Z,54.10
2022-08-05T11:34:39.329Z,54.10
2022-08-05T11:38:30.973Z,54.10
2022-08-05T11:40:02.655Z,54.70
2022-08-05T11:42:40.553Z,54.00
2022-08-05T11:45:23.185Z,54.00
2022-08-05T11:47:59.453Z,53.90
2022-08-05T11:50:28.581Z,53.90
2022-08-05T11:52:58.319Z,53.80
2022-08-05T11:55:32.349Z,53.80
2022-08-05T11:58:09.648Z,53.80
2022-08-05T12:00:44.418Z,53.80
2022-08-05T12:03:24.024Z,53.80
2022-08-05T12:06:01.036Z,53.70
2022-08-05T12:08:31.428Z,53.70
2022-08-05T12:11:06.041Z,53.70
2022-08-05T12:13:48.943Z,53.70
2022-08-05T12:16:25.420Z,53.60
2022-08-05T12:18:54.169Z,54.20
2022-08-05T12:21:26.911Z,53.50
2022-08-05T12:24:04.445Z,54.10
2022-08-05T12:26:35.460Z,53.40
2022-08-05T12:29:06.077Z,53.40
2022-08-05T12:31:42.494Z,53.40
2022-08-05T12:34:21.389Z,53.40
2022-08-05T12:36:53.399Z,53.30
2022-08-05T12:39:22.158Z,53.30
2022-08-05T12:41:57.944Z,53.30
2022-08-05T12:44:33.311Z,53.30
2022-08-05T12:47:04.402Z,53.30
2022-08-05T12:50:03.284Z,53.30
2022-08-05T12:52:42.323Z,53.20
2022-08-05T12:55:23.892Z,53.80
2022-08-05T12:58:38.913Z,53.20
2022-08-05T13:02:03.020Z,53.20
2022-08-05T13:03:42.465Z,53.20
2022-08-05T13:06:17.181Z,53.10
2022-08-05T13:08:51.791Z,53.20
2022-08-05T13:11:47.058Z,53.10
2022-08-05T13:14:36.377Z,53.10
2022-08-05T13:17:10.262Z,53.10
2022-08-05T13:19:50.931Z,53.00
2022-08-05T13:22:28.034Z,53.00
2022-08-05T13:25:00.425Z,53.00
2022-08-05T13:27:37.527Z,53.00
2022-08-05T13:30:34.014Z,52.90
2022-08-05T13:32:57.320Z,52.90
2022-08-05T13:35:47.418Z,52.90
2022-08-05T13:38:30.897Z,52.80
2022-08-05T13:41:04.813Z,52.80
2022-08-05T13:43:45.446Z,52.70
2022-08-05T13:47:01.561Z,52.80
2022-08-05T13:49:12.073Z,52.80
2022-08-05T13:51:46.352Z,52.70
2022-08-05T13:54:16.217Z,52.70
2022-08-05T13:56:51.023Z,52.70
2022-08-05T13:59:24.522Z,52.50
2022-08-05T14:01:56.550Z,52.50
2022-08-05T14:04:49.409Z,52.50
2022-08-05T14:07:56.527Z,52.50
2022-08-05T14:10:10.859Z,52.40
2022-08-05T14:12:39.230Z,52.40
2022-08-05T14:16:06.274Z,52.50
2022-08-05T14:17:59.624Z,52.40
2022-08-05T14:20:29.480Z,52.30
2022-08-05T14:22:59.139Z,52.40
2022-08-05T14:25:27.941Z,52.40
2022-08-05T14:27:58.370Z,52.40
2022-08-05T14:30:28.065Z,52.30
2022-08-05T14:32:57.205Z,52.30
2022-08-05T14:35:36.866Z,52.30
2022-08-05T14:38:32.385Z,52.20
2022-08-05T14:41:06.233Z,52.20
2022-08-05T14:44:01.881Z,52.20
2022-08-05T14:46:28.024Z,52.20
2022-08-05T14:48:57.777Z,52.10
2022-08-05T14:51:30.737Z,52.10
2022-08-05T14:54:26.463Z,52.10
2022-08-05T14:56:49.248Z,52.10
2022-08-05T14:59:21.196Z,52.10
2022-08-05T15:01:50.022Z,52.10
2022-08-05T15:04:20.504Z,52.10
2022-08-05T15:06:51.346Z,52.10
2022-08-05T15:09:52.154Z,52.10
2022-08-05T15:12:16.616Z,52.00
2022-08-05T15:14:50.110Z,52.00
2022-08-05T15:17:47.231Z,52.00
2022-08-05T15:20:18.901Z,52.00
2022-08-05T15:22:52.320Z,51.90
2022-08-05T15:25:51.593Z,51.90
2022-08-05T15:28:15.838Z,51.90
2022-08-05T15:30:45.812Z,51.90
2022-08-05T15:34:04.848Z,51.80
2022-08-05T15:36:04.968Z,51.80
2022-08-05T15:38:40.793Z,51.80
2022-08-05T15:41:22.121Z,51.80
2022-08-05T15:43:51.837Z,51.80
2022-08-05T15:46:24.416Z,51.80
2022-08-05T15:48:58.683Z,51.80
2022-08-05T15:52:13.486Z,51.80
2022-08-05T15:54:18.931Z,51.80
2022-08-05T15:56:48.740Z,51.70
2022-08-05T15:59:21.872Z,51.80
2022-08-05T16:01:52.363Z,51.70
2022-08-05T16:04:25.180Z,51.70
2022-08-05T16:06:55.766Z,51.70
2022-08-05T16:09:24.761Z,51.70
2022-08-05T16:11:54.882Z,51.70
2022-08-05T16:14:24.741Z,51.70
2022-08-05T16:16:53.798Z,51.60
2022-08-05T16:20:02.806Z,51.60
2022-08-05T16:22:11.002Z,51.60
2022-08-05T16:24:51.754Z,51.50
2022-08-05T16:27:46.934Z,51.50
2022-08-05T16:30:26.442Z,51.50
2022-08-05T16:32:57.249Z,51.40
2022-08-05T16:35:28.564Z,51.40
2022-08-05T16:38:15.022Z,51.40
2022-08-05T16:40:55.814Z,51.40
2022-08-05T16:43:31.404Z,51.40
2022-08-05T16:46:03.825Z,51.40
2022-08-05T16:48:36.729Z,51.40
2022-08-05T16:51:09.226Z,51.40
2022-08-05T16:54:05.897Z,51.30
2022-08-05T16:56:29.113Z,51.30
2022-08-05T16:59:01.853Z,51.30
2022-08-05T17:01:52.934Z,51.30
2022-08-05T17:04:23.659Z,51.20
2022-08-05T17:06:53.532Z,51.30
2022-08-05T17:09:23.193Z,51.20
2022-08-05T17:11:56.093Z,51.30
2022-08-05T17:14:36.671Z,51.30
2022-08-05T17:17:09.292Z,51.30
2022-08-05T17:19:46.172Z,51.30
2022-08-05T17:22:24.986Z,51.30
2022-08-05T17:24:58.188Z,51.20
2022-08-05T17:27:33.739Z,51.30
2022-08-05T17:30:12.122Z,51.30
2022-08-05T17:32:47.417Z,51.20
2022-08-05T17:35:20.723Z,51.20
2022-08-05T17:37:49.449Z,51.20
2022-08-05T17:40:22.635Z,51.20
2022-08-05T17:42:53.227Z,51.20
2022-08-05T17:45:25.166Z,51.20
2022-08-05T17:48:07.965Z,51.20
2022-08-05T17:50:36.695Z,51.20
2022-08-05T17:53:08.410Z,51.20
2022-08-05T17:55:39.564Z,51.20
2022-08-05T17:58:11.153Z,51.20
2022-08-05T18:00:47.040Z,51.20
2022-08-05T18:03:39.211Z,51.20
2022-08-05T18:06:10.886Z,51.20
2022-08-05T18:08:44.865Z,51.20
2022-08-05T18:11:24.759Z,51.20
2022-08-05T18:14:03.728Z,51.20
2022-08-05T18:16:34.387Z,51.10
2022-08-05T18:19:04.633Z,51.20
2022-08-05T18:22:08.589Z,51.20
2022-08-05T18:24:23.102Z,51.20
2022-08-05T18:26:54.378Z,51.10
2022-08-05T18:29:40.759Z,51.20
2022-08-05T18:32:12.759Z,51.20
2022-08-05T18:34:56.788Z,51.10
2022-08-05T18:37:34.757Z,51.20
2022-08-05T18:40:33.715Z,51.20
2022-08-05T18:42:58.499Z,51.20
2022-08-05T18:45:41.403Z,51.20
2022-08-05T18:48:17.445Z,51.20
2022-08-05T18:52:03.202Z,51.20
2022-08-05T18:54:05.554Z,51.20
2022-08-05T18:56:33.819Z,51.20
2022-08-05T18:59:02.897Z,51.20
2022-08-05T19:01:58.501Z,51.20
2022-08-05T19:04:30.158Z,51.20
2022-08-05T19:06:58.318Z,51.20
2022-08-05T19:09:26.490Z,51.20
2022-08-05T19:12:00.130Z,51.20
2022-08-05T19:14:38.030Z,51.80
2022-08-05T19:17:18.189Z,51.20
2022-08-05T19:19:48.890Z,51.20
2022-08-05T19:22:17.707Z,51.20
2022-08-05T19:24:54.400Z,51.20
2022-08-05T19:27:27.777Z,51.20
2022-08-05T19:29:58.829Z,51.20
2022-08-05T19:32:27.825Z,51.20
2022-08-05T19:34:58.084Z,51.20
2022-08-05T19:37:47.284Z,51.20
2022-08-05T19:40:15.743Z,51.30
2022-08-05T19:43:05.541Z,51.20
2022-08-05T19:45:33.285Z,51.30
2022-08-05T19:48:05.459Z,51.30
2022-08-05T19:50:36.685Z,51.30
2022-08-05T19:53:09.690Z,51.30
2022-08-05T19:56:12.493Z,51.30
2022-08-05T19:58:28.563Z,51.30
2022-08-05T20:00:58.031Z,51.30
2022-08-05T20:03:27.330Z,51.30
2022-08-05T20:06:11.850Z,51.30
2022-08-05T20:08:47.355Z,51.30
2022-08-05T20:11:17.990Z,51.30
2022-08-05T20:13:58.586Z,51.30
2022-08-05T20:16:29.556Z,51.40
2022-08-05T20:18:57.874Z,51.30
2022-08-05T20:21:30.179Z,51.40
2022-08-05T20:23:59.181Z,51.30
2022-08-05T20:26:27.588Z,51.40
2022-08-05T20:28:57.518Z,51.30
2022-08-05T20:31:43.100Z,51.40
2022-08-05T20:34:17.958Z,51.40
2022-08-05T20:36:49.564Z,51.40
2022-08-05T20:39:18.250Z,51.40
2022-08-05T20:41:48.174Z,51.40
2022-08-05T20:44:29.389Z,51.40
2022-08-05T20:46:59.710Z,51.40
2022-08-05T20:49:28.131Z,51.40
2022-08-05T20:51:58.458Z,51.40
2022-08-05T20:54:55.403Z,51.40
2022-08-05T20:57:24.820Z,51.40
2022-08-05T21:00:19.590Z,51.40
2022-08-05T21:02:54.508Z,51.40
2022-08-05T21:05:25.207Z,51.40
2022-08-05T21:07:57.988Z,51.40
2022-08-05T21:10:27.630Z,51.40
2022-08-05T21:13:08.997Z,52.10
2022-08-05T21:15:44.524Z,51.50
2022-08-05T21:18:19.336Z,51.50
2022-08-05T21:20:51.457Z,51.50
2022-08-05T21:23:22.932Z,51.50
2022-08-05T21:25:52.189Z,51.50
2022-08-05T21:28:24.084Z,51.50
2022-08-05T21:30:59.121Z,51.60
2022-08-05T21:33:37.100Z,51.50
2022-08-05T21:36:08.402Z,51.50
2022-08-05T21:38:40.506Z,51.50
2022-08-05T21:41:09.198Z,51.60
2022-08-05T21:43:41.866Z,51.60
2022-08-05T21:46:11.916Z,51.50
2022-08-05T21:48:40.657Z,51.60
2022-08-05T21:52:15.868Z,51.60
2022-08-05T21:54:03.578Z,51.60
2022-08-05T21:56:32.255Z,51.60
2022-08-05T21:59:01.426Z,51.60
2022-08-05T22:01:36.408Z,51.60
2022-08-05T22:04:05.317Z,51.60
2022-08-05T22:06:39.471Z,51.60
2022-08-05T22:09:13.658Z,51.60
2022-08-05T22:11:47.102Z,51.60
2022-08-05T22:14:32.708Z,51.60
2022-08-05T22:17:04.901Z,51.60
2022-08-05T22:20:01.418Z,51.70
2022-08-05T22:22:28.038Z,51.70
2022-08-05T22:25:18.000Z,51.70
2022-08-05T22:28:11.199Z,51.70
2022-08-05T22:30:44.204Z,51.70
2022-08-05T22:33:58.439Z,51.70
2022-08-05T22:36:14.216Z,51.70
2022-08-05T22:38:43.183Z,51.70
2022-08-05T22:41:12.757Z,51.80
2022-08-05T22:43:43.276Z,51.80
2022-08-05T22:46:12.204Z,51.80
2022-08-05T22:48:49.167Z,51.80
2022-08-05T22:51:23.343Z,51.80
2022-08-05T22:54:05.667Z,51.80
2022-08-05T22:56:35.132Z,51.80
2022-08-05T22:59:43.985Z,51.90
2022-08-05T23:02:06.280Z,51.80
2022-08-05T23:04:34.967Z,51.80
2022-08-05T23:07:04.009Z,51.80
2022-08-05T23:09:58.487Z,51.80
2022-08-05T23:12:24.091Z,52.50
2022-08-05T23:14:52.818Z,51.90
2022-08-05T23:17:34.937Z,51.90
2022-08-05T23:20:16.472Z,51.90
2022-08-05T23:22:47.244Z,51.90
2022-08-05T23:25:50.962Z,51.90
2022-08-05T23:28:07.918Z,52.00
2022-08-05T23:30:39.610Z,52.00
2022-08-05T23:33:16.001Z,52.00
2022-08-05T23:35:50.033Z,51.90
2022-08-05T23:38:18.398Z,52.00
2022-08-05T23:40:50.047Z,52.00
2022-08-05T23:43:25.206Z,52.00
2022-08-05T23:46:20.703Z,52.00
2022-08-05T23:49:00.999Z,52.00
2022-08-05T23:51:54.295Z,52.00
2022-08-05T23:54:25.969Z,52.00
2022-08-05T23:56:55.722Z,52.00
